Time;durP1;ratioP1;P1;durP2;ratioP2;P2;SDS_P1;SDS_P2;PMS_P1;PMS_P2;Temp;Humidity;BMP_temperature;BMP_pressure;BME280_temperature;BME280_humidity;BME280_pressure;Samples;Min_cycle;Max_cycle;Signal;HPM_P1;HPM_P2
2021/12/16 00:07:05;;;;;;;10.03;5.83;;;12.20;99.90;;;;;;5060934;28;20227;-86
2021/12/16 00:09:46;;;;;;;14.07;6.63;;;12.20;99.90;;;;;;5070839;28;20314;-87
2021/12/16 00:31:54;;;;;;;10.20;5.57;;;12.20;99.90;;;;;;5010640;28;20252;-86
2021/12/16 00:34:23;;;;;;;11.20;5.60;;;12.20;99.90;;;;;;5059489;28;20757;-85
2021/12/16 00:36:51;;;;;;;11.07;6.23;;;12.20;99.90;;;;;;5064173;28;20690;-85
2021/12/16 00:39:21;;;;;;;13.27;6.40;;;12.20;99.90;;;;;;5087004;28;20753;-86
2021/12/16 00:41:51;;;;;;;10.53;5.63;;;12.20;99.90;;;;;;5078562;28;20305;-86
2021/12/16 00:44:36;;;;;;;12.40;6.47;;;12.20;99.90;;;;;;5071870;28;20233;-86
2021/12/16 00:47:28;;;;;;;10.67;5.90;;;12.20;99.90;;;;;;5068781;28;20212;-84
2021/12/16 00:50:05;;;;;;;12.03;6.17;;;12.30;99.90;;;;;;5079997;28;20237;-84
2021/12/16 00:55:30;;;;;;;15.77;7.13;;;12.20;99.90;;;;;;5070303;28;20220;-84
2021/12/16 00:57:57;;;;;;;10.07;6.73;;;12.20;99.90;;;;;;5072141;28;20208;-84
2021/12/16 01:00:27;;;;;;;14.23;6.47;;;12.20;99.90;;;;;;5071633;28;20217;-85
2021/12/16 01:03:08;;;;;;;13.83;6.80;;;12.20;99.90;;;;;;5072139;28;20219;-84
2021/12/16 01:08:42;;;;;;;13.43;7.33;;;12.20;99.90;;;;;;5078425;28;20213;-84
2021/12/16 01:34:13;;;;;;;14.67;7.67;;;12.20;99.90;;;;;;5068085;28;20206;-85
2021/12/16 01:37:04;;;;;;;17.13;8.43;;;12.20;99.90;;;;;;5083829;28;20252;-86
2021/12/16 01:45:27;;;;;;;20.73;8.23;;;12.30;99.90;;;;;;4991361;28;20696;-84
2021/12/16 01:45:53;;;;;;;15.23;8.47;;;12.30;99.90;;;;;;5074914;28;20831;-85
2021/12/16 01:51:16;;;;;;;14.57;8.63;;;12.30;99.90;;;;;;5066489;28;20226;-84
2021/12/16 01:54:26;;;;;;;18.80;9.13;;;12.30;99.90;;;;;;5069364;28;20219;-84
2021/12/16 01:56:54;;;;;;;15.80;8.93;;;12.30;99.90;;;;;;5066984;28;20251;-84
2021/12/16 01:59:24;;;;;;;19.80;9.77;;;12.30;99.90;;;;;;5077396;28;20222;-86
2021/12/16 02:01:59;;;;;;;18.03;9.17;;;12.30;99.90;;;;;;5069587;28;20230;-85
2021/12/16 02:04:30;;;;;;;22.10;9.93;;;12.30;99.90;;;;;;5069962;28;20248;-85
2021/12/16 02:07:08;;;;;;;19.63;9.67;;;12.30;99.90;;;;;;5070826;28;20319;-86
2021/12/16 02:09:40;;;;;;;21.97;10.07;;;12.30;99.90;;;;;;5068940;28;20225;-85
2021/12/16 02:12:17;;;;;;;18.53;9.23;;;12.30;99.90;;;;;;5069609;28;20676;-85
2021/12/16 02:28:53;;;;;;;19.23;10.17;;;12.30;99.90;;;;;;5070386;28;20216;-85
2021/12/16 02:31:30;;;;;;;23.90;11.27;;;12.30;99.90;;;;;;5071730;28;20229;-84
2021/12/16 02:36:48;;;;;;;25.07;11.87;;;12.30;99.90;;;;;;5045378;28;20213;-85
2021/12/16 02:39:21;;;;;;;24.63;11.77;;;12.30;99.90;;;;;;5067011;28;20224;-85
2021/12/16 02:41:50;;;;;;;22.80;10.80;;;12.30;99.90;;;;;;5071078;28;20304;-84
2021/12/16 02:44:29;;;;;;;21.20;11.67;;;12.30;99.90;;;;;;5069617;28;20219;-84
2021/12/16 02:49:40;;;;;;;22.40;11.43;;;12.30;99.90;;;;;;5084205;28;20217;-84
2021/12/16 02:52:09;;;;;;;21.87;11.90;;;12.30;99.90;;;;;;5083790;28;20225;-84
2021/12/16 02:54:36;;;;;;;26.57;12.13;;;12.30;99.90;;;;;;5063364;28;20612;-85
2021/12/16 02:57:03;;;;;;;28.07;13.13;;;12.20;99.90;;;;;;5076918;28;20249;-83
2021/12/16 02:59:31;;;;;;;24.90;12.80;;;12.20;99.90;;;;;;5073487;28;20237;-85
2021/12/16 03:02:04;;;;;;;25.07;12.20;;;12.20;99.90;;;;;;5075616;28;20216;-82
2021/12/16 03:04:32;;;;;;;23.83;12.63;;;12.20;99.90;;;;;;5069218;28;20219;-82
2021/12/16 03:06:59;;;;;;;28.50;12.37;;;12.20;99.90;;;;;;5069649;28;20237;-83
2021/12/16 03:12:41;;;;;;;27.63;12.60;;;12.20;99.90;;;;;;5075395;28;20281;-84
2021/12/16 03:15:19;;;;;;;25.83;12.83;;;12.20;99.90;;;;;;5076055;28;20293;-85
2021/12/16 03:17:54;;;;;;;23.17;12.73;;;12.20;99.90;;;;;;5077749;28;20550;-85
2021/12/16 03:20:30;;;;;;;26.37;13.67;;;12.20;99.90;;;;;;5075060;28;20750;-85
2021/12/16 03:23:11;;;;;;;27.10;14.17;;;12.20;99.90;;;;;;5069338;28;20257;-86
2021/12/16 03:25:52;;;;;;;30.13;13.73;;;12.20;99.90;;;;;;5066057;28;20222;-86
2021/12/16 03:28:49;;;;;;;22.37;12.97;;;12.20;99.90;;;;;;5070977;28;20220;-85
2021/12/16 03:32:08;;;;;;;25.67;13.63;;;12.20;99.90;;;;;;5084678;28;20225;-84
2021/12/16 03:34:45;;;;;;;23.00;12.90;;;12.20;99.90;;;;;;5076540;28;20215;-85
2021/12/16 03:37:18;;;;;;;25.07;13.63;;;12.20;99.90;;;;;;5068316;28;20250;-82
2021/12/16 03:39:49;;;;;;;22.90;13.87;;;12.20;99.90;;;;;;5067681;28;20331;-82
2021/12/16 03:42:22;;;;;;;28.87;14.73;;;12.10;99.90;;;;;;5069042;28;20224;-82
2021/12/16 03:44:55;;;;;;;32.57;15.13;;;12.10;99.90;;;;;;5065725;28;20341;-84
2021/12/16 03:47:32;;;;;;;23.07;14.83;;;12.10;99.90;;;;;;5067001;28;20276;-84
2021/12/16 03:50:00;;;;;;;31.47;16.30;;;12.10;99.90;;;;;;5068090;28;21003;-85
2021/12/16 03:52:27;;;;;;;24.87;15.73;;;12.10;99.90;;;;;;5064043;28;20221;-82
2021/12/16 03:54:57;;;;;;;29.60;15.97;;;12.10;99.90;;;;;;5066167;28;20287;-81
2021/12/16 03:57:30;;;;;;;30.03;16.23;;;12.10;99.90;;;;;;5065847;28;20211;-82
2021/12/16 03:59:57;;;;;;;28.67;16.70;;;12.10;99.90;;;;;;5079030;28;20222;-87
2021/12/16 04:02:44;;;;;;;31.17;16.40;;;12.10;99.90;;;;;;5067842;28;20687;-89
2021/12/16 04:05:13;;;;;;;27.53;16.20;;;12.10;99.90;;;;;;5068403;28;20280;-87
2021/12/16 04:07:44;;;;;;;36.17;16.97;;;12.10;99.90;;;;;;5068644;28;20273;-86
2021/12/16 04:10:23;;;;;;;27.77;15.83;;;12.10;99.90;;;;;;5069273;28;20239;-84
2021/12/16 04:12:52;;;;;;;32.67;17.17;;;12.10;99.90;;;;;;5075447;28;20249;-84
2021/12/16 04:15:20;;;;;;;40.87;17.87;;;12.10;99.90;;;;;;5072273;28;20222;-87
2021/12/16 04:17:51;;;;;;;37.40;17.97;;;12.10;99.90;;;;;;5081595;28;20220;-83
2021/12/16 04:20:18;;;;;;;30.47;17.67;;;12.10;99.90;;;;;;5083272;28;20221;-83
2021/12/16 04:22:46;;;;;;;30.10;17.53;;;12.10;99.90;;;;;;5084016;28;20801;-83
2021/12/16 04:25:20;;;;;;;35.50;17.93;;;12.10;99.90;;;;;;5080139;28;20747;-83
2021/12/16 04:27:50;;;;;;;32.20;18.00;;;12.10;99.90;;;;;;5072386;28;20598;-84
2021/12/16 04:30:19;;;;;;;33.77;18.10;;;12.10;99.90;;;;;;5074642;28;20284;-83
2021/12/16 04:32:47;;;;;;;38.17;18.63;;;12.10;99.90;;;;;;5074281;28;20230;-84
2021/12/16 04:35:16;;;;;;;41.37;19.23;;;12.10;99.90;;;;;;5071943;28;20229;-85
2021/12/16 04:37:46;;;;;;;35.20;18.90;;;12.10;99.90;;;;;;5071266;28;20227;-82
2021/12/16 04:40:16;;;;;;;35.70;19.77;;;12.10;99.90;;;;;;5075028;28;21518;-82
2021/12/16 04:42:48;;;;;;;34.53;19.20;;;12.10;99.90;;;;;;5076325;28;20224;-83
2021/12/16 04:45:21;;;;;;;36.37;17.63;;;12.10;99.90;;;;;;5071911;28;20244;-85
2021/12/16 04:47:49;;;;;;;39.17;17.97;;;12.00;99.90;;;;;;5073846;28;20214;-84
2021/12/16 04:50:17;;;;;;;37.33;18.83;;;12.10;99.90;;;;;;5076612;28;20223;-85
2021/12/16 04:52:44;;;;;;;38.30;19.00;;;12.10;99.90;;;;;;5072186;28;20230;-84
2021/12/16 04:55:15;;;;;;;40.93;19.80;;;12.10;99.90;;;;;;5075958;28;20266;-85
2021/12/16 04:57:44;;;;;;;36.70;19.27;;;12.10;99.90;;;;;;5082087;28;20297;-85
2021/12/16 05:00:15;;;;;;;33.80;18.27;;;12.10;99.90;;;;;;5077646;28;20241;-82
2021/12/16 05:02:49;;;;;;;33.87;18.57;;;12.10;99.90;;;;;;5067983;28;20278;-83
2021/12/16 05:05:36;;;;;;;42.77;18.97;;;12.10;99.90;;;;;;5079453;28;20215;-84
2021/12/16 05:08:04;;;;;;;36.47;18.17;;;12.10;99.90;;;;;;5078132;28;20234;-83
2021/12/16 05:10:38;;;;;;;40.77;19.63;;;12.10;99.90;;;;;;5064713;28;20230;-83
2021/12/16 05:13:11;;;;;;;36.83;19.17;;;12.10;99.90;;;;;;5093459;28;20225;-83
2021/12/16 05:15:41;;;;;;;36.00;20.50;;;12.10;99.90;;;;;;5093834;28;20223;-87
2021/12/16 05:18:13;;;;;;;40.30;20.40;;;12.10;99.90;;;;;;5093059;28;20585;-85
2021/12/16 05:20:48;;;;;;;43.67;19.80;;;12.10;99.90;;;;;;5093571;28;20238;-86
2021/12/16 05:26:16;;;;;;;40.53;19.63;;;12.10;99.90;;;;;;5066351;28;20688;-84
2021/12/16 05:28:52;;;;;;;47.77;20.83;;;12.10;99.90;;;;;;5089441;28;20309;-83
2021/12/16 05:31:21;;;;;;;64.23;20.93;;;12.10;99.90;;;;;;5054912;28;20266;-84
2021/12/16 05:33:53;;;;;;;58.20;21.33;;;12.10;99.90;;;;;;5052377;28;20734;-84
2021/12/16 05:36:20;;;;;;;58.70;21.67;;;12.10;99.90;;;;;;5081024;28;20287;-84
2021/12/16 05:38:47;;;;;;;81.20;23.63;;;12.10;99.90;;;;;;5091846;28;21025;-84
2021/12/16 05:41:17;;;;;;;46.73;20.70;;;12.10;99.90;;;;;;5090999;28;20217;-84
2021/12/16 05:43:45;;;;;;;65.43;22.97;;;12.10;99.90;;;;;;5091132;28;20227;-84
2021/12/16 05:46:14;;;;;;;61.70;22.83;;;12.10;99.90;;;;;;5082090;28;20215;-85
2021/12/16 05:48:44;;;;;;;51.70;20.50;;;12.10;99.90;;;;;;5076881;28;20220;-85
2021/12/16 05:51:14;;;;;;;43.80;21.00;;;12.10;99.90;;;;;;5071497;28;20242;-86
2021/12/16 05:53:43;;;;;;;57.77;21.13;;;12.10;99.90;;;;;;5071304;28;20271;-87
2021/12/16 05:56:26;;;;;;;48.00;20.67;;;12.10;99.90;;;;;;5071128;28;20727;-87
2021/12/16 05:58:53;;;;;;;40.43;19.20;;;12.10;99.90;;;;;;5071550;28;20217;-87
2021/12/16 06:01:22;;;;;;;48.67;21.50;;;12.10;99.90;;;;;;5070790;28;20645;-87
2021/12/16 06:03:51;;;;;;;37.33;19.03;;;12.10;99.90;;;;;;5070891;28;20706;-86
2021/12/16 06:06:21;;;;;;;36.57;19.33;;;12.10;99.90;;;;;;5069500;28;20215;-86
2021/12/16 06:08:49;;;;;;;35.67;19.73;;;12.10;99.90;;;;;;5086664;28;20810;-86
2021/12/16 06:11:20;;;;;;;37.93;18.70;;;12.10;99.90;;;;;;5069078;28;20244;-85
2021/12/16 06:14:00;;;;;;;49.47;18.57;;;12.10;99.90;;;;;;5076760;28;20281;-85
2021/12/16 06:27:28;;;;;;;34.87;17.00;;;12.10;99.90;;;;;;5069094;28;20219;-86
2021/12/16 06:29:56;;;;;;;33.13;17.67;;;12.10;99.90;;;;;;5069505;28;20223;-87
2021/12/16 06:32:25;;;;;;;30.57;17.23;;;12.20;99.90;;;;;;5067503;28;20210;-87
2021/12/16 06:34:52;;;;;;;33.23;16.97;;;12.20;99.90;;;;;;5069401;28;20222;-87
2021/12/16 06:37:20;;;;;;;34.57;17.00;;;12.10;99.90;;;;;;5067232;28;20229;-87
2021/12/16 06:39:47;;;;;;;34.23;17.20;;;12.10;99.90;;;;;;5069370;28;20254;-87
2021/12/16 06:42:27;;;;;;;28.27;15.60;;;12.10;99.90;;;;;;5075997;28;20227;-88
2021/12/16 06:45:02;;;;;;;35.33;17.83;;;12.20;99.90;;;;;;5078978;28;20635;-86
2021/12/16 06:47:36;;;;;;;33.70;15.70;;;12.20;99.90;;;;;;5088806;28;20508;-85
2021/12/16 06:50:03;;;;;;;29.93;15.57;;;12.10;99.90;;;;;;5058407;28;20896;-86
2021/12/16 06:52:38;;;;;;;34.83;15.93;;;12.20;99.90;;;;;;5070974;28;20224;-86
2021/12/16 06:55:12;;;;;;;28.23;14.73;;;12.20;99.90;;;;;;5068905;28;20235;-85
2021/12/16 06:57:44;;;;;;;28.77;14.47;;;12.20;99.90;;;;;;5076278;28;20248;-87
2021/12/16 07:00:18;;;;;;;30.77;14.90;;;12.20;99.90;;;;;;5078376;28;20280;-86
2021/12/16 07:02:56;;;;;;;27.10;14.03;;;12.20;99.90;;;;;;5079865;28;20261;-81
2021/12/16 07:05:27;;;;;;;27.73;14.53;;;12.20;99.90;;;;;;5083081;28;20236;-82
2021/12/16 07:07:56;;;;;;;27.17;14.93;;;12.20;99.90;;;;;;5078931;28;20222;-80
2021/12/16 07:10:24;;;;;;;26.50;14.10;;;12.20;99.90;;;;;;5070955;28;20233;-83
2021/12/16 07:12:51;;;;;;;25.87;13.13;;;12.20;99.90;;;;;;5073413;28;20745;-82
2021/12/16 07:15:21;;;;;;;21.37;13.30;;;12.20;99.90;;;;;;5076811;28;20266;-82
2021/12/16 07:17:49;;;;;;;23.77;12.47;;;12.20;99.90;;;;;;5078506;28;20240;-85
2021/12/16 07:20:20;;;;;;;23.33;12.23;;;12.20;99.90;;;;;;5072417;28;20280;-86
2021/12/16 07:22:48;;;;;;;20.27;11.90;;;12.20;99.90;;;;;;5073556;28;20218;-86
2021/12/16 07:25:16;;;;;;;20.43;11.70;;;12.20;99.90;;;;;;5072561;28;20227;-86
2021/12/16 07:27:43;;;;;;;19.80;11.13;;;12.20;99.90;;;;;;5064615;28;20223;-85
2021/12/16 07:30:14;;;;;;;20.23;11.10;;;12.20;99.90;;;;;;5070420;28;20262;-85
2021/12/16 07:32:41;;;;;;;21.67;10.70;;;12.20;99.90;;;;;;5061382;28;20697;-85
2021/12/16 07:35:11;;;;;;;22.33;10.90;;;12.20;99.90;;;;;;5068449;28;20217;-85
2021/12/16 07:37:38;;;;;;;20.00;11.07;;;12.20;99.90;;;;;;5075838;28;20923;-85
2021/12/16 07:40:08;;;;;;;16.83;11.00;;;12.20;99.90;;;;;;5068088;28;20428;-85
2021/12/16 07:42:45;;;;;;;20.07;11.07;;;12.20;99.90;;;;;;5061713;28;20252;-85
2021/12/16 07:45:14;;;;;;;25.43;11.77;;;12.20;99.90;;;;;;5066164;28;20222;-85
2021/12/16 07:47:41;;;;;;;19.67;10.63;;;12.20;99.90;;;;;;5067845;28;20737;-85
2021/12/16 07:50:09;;;;;;;22.17;11.77;;;12.20;99.90;;;;;;5070876;28;20272;-85
2021/12/16 07:52:37;;;;;;;23.97;11.23;;;12.20;99.90;;;;;;5066443;28;21102;-84
2021/12/16 07:55:05;;;;;;;25.17;12.07;;;12.20;99.90;;;;;;5069955;28;20230;-83
2021/12/16 07:57:32;;;;;;;23.83;11.80;;;12.20;99.90;;;;;;5066613;28;20223;-85
2021/12/16 08:00:00;;;;;;;20.90;10.93;;;12.20;99.90;;;;;;5080556;28;20217;-85
2021/12/16 08:02:27;;;;;;;22.70;10.97;;;12.20;99.90;;;;;;5068667;28;20708;-85
2021/12/16 08:04:54;;;;;;;20.80;10.37;;;12.20;99.90;;;;;;5067785;28;20221;-85
2021/12/16 08:07:21;;;;;;;22.87;10.00;;;12.20;99.90;;;;;;5076095;28;20235;-85
2021/12/16 08:09:49;;;;;;;21.83;9.77;;;12.20;99.90;;;;;;5074826;28;20233;-85
2021/12/16 08:12:16;;;;;;;18.37;10.07;;;12.20;99.90;;;;;;5071119;28;20492;-85
2021/12/16 08:14:44;;;;;;;22.73;10.60;;;12.20;99.90;;;;;;5069277;28;20232;-85
2021/12/16 08:17:13;;;;;;;21.30;10.87;;;12.20;99.90;;;;;;5066588;28;20230;-85
2021/12/16 08:19:39;;;;;;;17.80;9.97;;;12.20;99.90;;;;;;5067765;28;20310;-85
2021/12/16 08:22:07;;;;;;;15.40;8.80;;;12.20;99.90;;;;;;5067571;28;20713;-85
2021/12/16 08:24:35;;;;;;;20.73;9.43;;;12.20;99.90;;;;;;5070987;28;20230;-84
2021/12/16 08:27:01;;;;;;;16.37;8.93;;;12.20;99.90;;;;;;5074024;28;20227;-85
2021/12/16 08:29:28;;;;;;;18.67;8.60;;;12.20;99.90;;;;;;5070022;28;20218;-85
2021/12/16 08:31:56;;;;;;;13.10;8.43;;;12.20;99.90;;;;;;5071836;28;20231;-86
2021/12/16 08:34:25;;;;;;;15.00;8.37;;;12.20;99.90;;;;;;5071742;28;20685;-85
2021/12/16 08:36:52;;;;;;;15.37;7.97;;;12.20;99.90;;;;;;5069540;28;20233;-86
2021/12/16 08:39:18;;;;;;;12.97;8.07;;;12.30;99.90;;;;;;5071119;28;20234;-86
2021/12/16 08:41:49;;;;;;;15.10;8.63;;;12.30;99.90;;;;;;5069155;28;20228;-86
2021/12/16 08:44:16;;;;;;;15.50;8.27;;;12.30;99.90;;;;;;5069166;28;20252;-86
2021/12/16 08:46:46;;;;;;;15.17;8.87;;;12.40;99.90;;;;;;5069791;28;20223;-86
2021/12/16 08:49:14;;;;;;;16.97;9.63;;;12.40;99.90;;;;;;5069406;28;20253;-86
2021/12/16 08:51:46;;;;;;;15.20;8.43;;;12.40;99.90;;;;;;5070080;28;20886;-86
2021/12/16 08:54:13;;;;;;;18.53;8.97;;;12.40;99.90;;;;;;5070680;28;20227;-86
2021/12/16 08:56:40;;;;;;;15.27;8.53;;;12.40;99.90;;;;;;5070040;28;20226;-86
2021/12/16 08:59:08;;;;;;;15.33;8.20;;;12.50;99.90;;;;;;5071984;28;20220;-86
2021/12/16 09:01:38;;;;;;;11.90;7.00;;;12.50;99.90;;;;;;5072708;28;20724;-85
2021/12/16 09:04:05;;;;;;;12.97;7.87;;;12.60;99.90;;;;;;5075234;28;20221;-86
2021/12/16 09:06:32;;;;;;;10.53;6.40;;;12.60;99.90;;;;;;5072570;28;20788;-86
2021/12/16 09:09:00;;;;;;;10.70;5.63;;;12.60;99.90;;;;;;5073303;28;20684;-86
2021/12/16 09:11:32;;;;;;;9.57;5.50;;;12.60;99.90;;;;;;5073207;28;20225;-86
2021/12/16 09:14:00;;;;;;;10.57;5.37;;;12.60;99.90;;;;;;5072387;28;20312;-86
2021/12/16 09:16:31;;;;;;;8.97;5.50;;;12.60;99.90;;;;;;5074061;28;20222;-86
2021/12/16 09:18:59;;;;;;;9.37;5.07;;;12.60;99.90;;;;;;5072317;28;20232;-86
2021/12/16 09:21:28;;;;;;;9.27;4.57;;;12.60;99.90;;;;;;5072849;28;20222;-86
2021/12/16 09:23:56;;;;;;;10.33;4.93;;;12.60;99.90;;;;;;5073054;28;20579;-85
2021/12/16 09:26:26;;;;;;;8.33;3.77;;;12.60;99.90;;;;;;5072244;28;20235;-86
2021/12/16 09:28:55;;;;;;;6.60;4.10;;;12.70;99.90;;;;;;5072701;28;20673;-86
2021/12/16 09:31:27;;;;;;;8.07;4.50;;;12.70;99.90;;;;;;5073675;28;20241;-86
2021/12/16 09:33:56;;;;;;;8.83;3.97;;;12.80;99.90;;;;;;5079377;28;20251;-86
2021/12/16 09:36:26;;;;;;;6.07;3.60;;;12.80;99.90;;;;;;5092437;28;20223;-86
2021/12/16 09:38:56;;;;;;;6.13;3.20;;;12.90;99.90;;;;;;5094274;28;20221;-86
2021/12/16 09:41:25;;;;;;;5.50;2.80;;;13.00;99.90;;;;;;5093669;28;20245;-86
2021/12/16 09:43:54;;;;;;;6.87;3.00;;;13.00;99.90;;;;;;5073316;28;20241;-87
2021/12/16 09:46:23;;;;;;;6.10;2.80;;;13.10;99.90;;;;;;5072173;28;20313;-87
2021/12/16 09:48:50;;;;;;;5.80;3.13;;;13.20;99.90;;;;;;5073238;28;20224;-86
2021/12/16 09:51:22;;;;;;;6.80;3.37;;;13.20;99.90;;;;;;5072712;28;20579;-87
2021/12/16 09:53:51;;;;;;;6.90;3.20;;;13.30;99.90;;;;;;5073117;28;20269;-86
2021/12/16 09:56:22;;;;;;;6.87;3.10;;;13.30;99.90;;;;;;5073280;28;20232;-86
2021/12/16 09:58:52;;;;;;;7.20;2.70;;;13.40;99.90;;;;;;5083710;28;20262;-86
2021/12/16 10:01:27;;;;;;;6.83;2.57;;;13.40;99.90;;;;;;5085500;28;20228;-86
2021/12/16 10:04:02;;;;;;;7.50;2.50;;;13.50;99.90;;;;;;5072311;28;20275;-86
2021/12/16 10:06:30;;;;;;;8.10;3.00;;;13.50;99.90;;;;;;5079683;28;20306;-86
2021/12/16 10:08:59;;;;;;;5.83;2.63;;;13.50;99.90;;;;;;5073969;28;20298;-86
2021/12/16 10:11:48;;;;;;;8.90;2.70;;;13.50;99.90;;;;;;5072788;28;20229;-86
2021/12/16 10:14:31;;;;;;;5.47;2.60;;;13.60;99.90;;;;;;5080565;28;20736;-86
2021/12/16 10:19:45;;;;;;;7.67;2.63;;;13.60;99.90;;;;;;5086351;28;20229;-85
2021/12/16 10:22:22;;;;;;;7.93;3.27;;;13.60;99.90;;;;;;5072106;28;20762;-85
2021/12/16 10:24:54;;;;;;;8.37;3.10;;;13.60;99.90;;;;;;5071163;28;20220;-85
2021/12/16 10:27:26;;;;;;;7.20;2.70;;;13.60;99.90;;;;;;5073354;28;20263;-86
2021/12/16 10:29:57;;;;;;;6.67;3.23;;;13.50;99.90;;;;;;5073129;28;20223;-86
2021/12/16 10:32:39;;;;;;;9.87;3.20;;;13.50;99.90;;;;;;5068491;28;20225;-86
2021/12/16 10:35:11;;;;;;;8.03;3.13;;;13.50;99.90;;;;;;5067235;28;20228;-87
2021/12/16 10:37:42;;;;;;;7.13;2.70;;;13.50;99.90;;;;;;5071175;28;20231;-86
2021/12/16 10:40:36;;;;;;;9.30;2.67;;;13.50;99.90;;;;;;5073045;28;20302;-86
2021/12/16 10:43:08;;;;;;;5.80;2.67;;;13.50;99.90;;;;;;5069228;28;20228;-87
2021/12/16 10:45:43;;;;;;;9.63;2.80;;;13.50;99.90;;;;;;5080074;28;20227;-87
2021/12/16 10:48:15;;;;;;;11.23;3.57;;;13.50;99.90;;;;;;5080013;28;20220;-87
2021/12/16 10:51:16;;;;;;;9.27;3.03;;;13.60;99.90;;;;;;5080515;28;20219;-87
2021/12/16 10:54:03;;;;;;;11.10;3.00;;;13.60;99.90;;;;;;5055639;28;20700;-87
2021/12/16 10:56:34;;;;;;;5.87;3.33;;;13.70;99.90;;;;;;5074648;28;20721;-87
2021/12/16 10:59:03;;;;;;;8.83;3.07;;;13.70;99.90;;;;;;5071344;28;20224;-87
2021/12/16 11:01:57;;;;;;;8.10;2.80;;;13.80;99.90;;;;;;5070061;28;20231;-87
2021/12/16 11:04:38;;;;;;;8.63;3.20;;;13.70;99.90;;;;;;5072135;28;20222;-87
2021/12/16 11:07:10;;;;;;;9.30;2.97;;;13.80;99.90;;;;;;5068042;28;20227;-87
2021/12/16 11:09:43;;;;;;;9.00;3.23;;;13.80;99.90;;;;;;5079658;28;20219;-88
2021/12/16 11:12:36;;;;;;;10.90;3.53;;;13.80;99.90;;;;;;5070968;28;20248;-86
2021/12/16 11:15:23;;;;;;;9.83;3.17;;;13.70;99.90;;;;;;5070879;28;20228;-87
2021/12/16 11:17:55;;;;;;;12.37;4.00;;;13.70;99.90;;;;;;5074578;28;20710;-88
2021/12/16 11:20:26;;;;;;;9.57;3.57;;;13.80;99.90;;;;;;5078351;28;20248;-87
2021/12/16 11:22:57;;;;;;;8.60;3.23;;;13.80;99.90;;;;;;5071731;28;20226;-88
2021/12/16 11:25:26;;;;;;;10.77;3.50;;;13.90;99.90;;;;;;5071646;28;20237;-85
2021/12/16 11:27:56;;;;;;;10.00;3.57;;;13.90;99.90;;;;;;5071399;28;20221;-87
2021/12/16 11:30:33;;;;;;;14.07;3.80;;;14.00;99.90;;;;;;5068324;28;20628;-86
2021/12/16 11:33:22;;;;;;;10.27;4.20;;;14.20;99.90;;;;;;5068895;28;20218;-87
2021/12/16 11:35:56;;;;;;;11.43;4.70;;;14.30;99.90;;;;;;5085422;28;20230;-86
2021/12/16 11:38:32;;;;;;;12.87;4.97;;;14.50;99.90;;;;;;5066143;28;20294;-86
2021/12/16 11:41:21;;;;;;;14.57;5.63;;;14.60;99.90;;;;;;5066241;28;20224;-86
2021/12/16 11:43:53;;;;;;;11.17;5.23;;;14.70;99.90;;;;;;5071467;28;20845;-86
2021/12/16 11:46:25;;;;;;;11.57;6.30;;;14.80;99.90;;;;;;5078887;28;20702;-86
2021/12/16 11:48:56;;;;;;;12.30;6.20;;;14.70;99.90;;;;;;5072969;28;20798;-86
2021/12/16 11:51:28;;;;;;;12.40;6.17;;;14.60;99.90;;;;;;5073196;28;20754;-85
2021/12/16 11:53:57;;;;;;;12.27;6.90;;;14.50;99.90;;;;;;5076170;28;20222;-85
2021/12/16 11:56:38;;;;;;;12.80;7.00;;;14.50;99.90;;;;;;5070009;28;20317;-85
2021/12/16 11:59:06;;;;;;;16.27;7.60;;;14.40;99.90;;;;;;5059369;28;20313;-83
2021/12/16 12:01:36;;;;;;;12.13;7.00;;;14.40;99.90;;;;;;5065706;28;20252;-83
2021/12/16 12:04:06;;;;;;;14.23;7.10;;;14.30;99.90;;;;;;5075239;28;20213;-83
2021/12/16 12:06:36;;;;;;;13.73;7.20;;;14.30;99.90;;;;;;5071656;28;20706;-84
2021/12/16 12:09:07;;;;;;;15.50;6.73;;;14.30;99.90;;;;;;5072864;28;20845;-83
2021/12/16 12:11:38;;;;;;;16.53;7.00;;;14.30;99.90;;;;;;5085143;28;20225;-83
2021/12/16 12:14:08;;;;;;;13.83;5.43;;;14.30;99.90;;;;;;5064774;28;20888;-83
2021/12/16 12:16:39;;;;;;;11.87;4.70;;;14.40;99.90;;;;;;5064700;28;20226;-83
2021/12/16 12:19:13;;;;;;;11.43;5.00;;;14.40;99.90;;;;;;5059073;28;20233;-84
2021/12/16 12:21:43;;;;;;;14.53;4.80;;;14.40;99.90;;;;;;5067554;28;20743;-84
2021/12/16 12:24:14;;;;;;;13.40;4.50;;;14.40;99.90;;;;;;5054982;28;20666;-83
2021/12/16 12:26:45;;;;;;;12.60;4.97;;;14.30;99.90;;;;;;5071566;28;20247;-83
2021/12/16 12:29:15;;;;;;;16.27;4.80;;;14.30;99.90;;;;;;5064330;28;20231;-82
2021/12/16 12:31:45;;;;;;;15.30;5.47;;;14.10;99.90;;;;;;5067204;28;20226;-83
2021/12/16 12:34:14;;;;;;;16.10;7.50;;;14.00;99.90;;;;;;5070217;28;20231;-82
2021/12/16 12:36:41;;;;;;;22.93;12.97;;;13.90;99.90;;;;;;5072425;28;20315;-84
2021/12/16 12:39:10;;;;;;;21.10;8.90;;;13.90;99.90;;;;;;5068998;28;20245;-84
2021/12/16 12:41:37;;;;;;;19.83;8.10;;;13.80;99.90;;;;;;5077485;28;20282;-83
2021/12/16 12:44:05;;;;;;;14.67;6.47;;;13.70;99.90;;;;;;5071544;28;20761;-85
2021/12/16 12:46:34;;;;;;;11.10;4.20;;;13.60;99.90;;;;;;5070406;28;20698;-85
2021/12/16 12:49:05;;;;;;;13.63;3.77;;;13.70;99.90;;;;;;5073544;28;20685;-83
2021/12/16 12:51:36;;;;;;;12.17;3.43;;;13.60;99.90;;;;;;5070438;28;20307;-86
2021/12/16 12:54:20;;;;;;;17.57;4.30;;;13.70;99.90;;;;;;5070236;28;20236;-84
2021/12/16 12:56:48;;;;;;;12.87;3.90;;;13.60;99.90;;;;;;5074372;28;20228;-84
2021/12/16 12:59:16;;;;;;;11.10;3.40;;;13.70;99.90;;;;;;5067303;28;20221;-84
2021/12/16 13:01:48;;;;;;;9.43;3.40;;;13.70;99.90;;;;;;5065642;28;20286;-85
2021/12/16 13:04:18;;;;;;;16.67;4.87;;;13.70;99.90;;;;;;5070705;28;20246;-84
2021/12/16 13:06:56;;;;;;;16.80;4.07;;;13.70;99.90;;;;;;5078025;28;20246;-84
2021/12/16 13:09:33;;;;;;;10.67;3.87;;;13.60;99.90;;;;;;5070723;28;20736;-84
2021/12/16 13:12:02;;;;;;;16.50;4.77;;;13.50;99.90;;;;;;5073818;28;20219;-84
2021/12/16 13:14:46;;;;;;;16.10;4.30;;;13.50;99.90;;;;;;5071343;28;20700;-84
2021/12/16 13:23:19;;;;;;;14.60;4.03;;;13.40;99.90;;;;;;5087499;28;20248;-84
2021/12/16 13:23:37;;;;;;;11.90;3.70;;;13.30;99.90;;;;;;5065310;28;20220;-84
2021/12/16 13:26:26;;;;;;;9.97;3.20;;;13.30;99.90;;;;;;5076570;28;20587;-84
2021/12/16 13:29:08;;;;;;;10.63;3.23;;;13.20;99.90;;;;;;5069279;28;20791;-84
2021/12/16 13:31:49;;;;;;;11.53;3.90;;;13.20;99.90;;;;;;5069083;28;20309;-84
2021/12/16 13:34:32;;;;;;;15.53;3.77;;;13.10;99.90;;;;;;5061084;28;20648;-84
2021/12/16 13:37:06;;;;;;;12.77;3.77;;;13.10;99.90;;;;;;5070846;28;20226;-84
2021/12/16 13:39:43;;;;;;;11.63;3.87;;;13.10;99.90;;;;;;5067471;28;20216;-84
2021/12/16 13:42:13;;;;;;;11.93;3.40;;;13.10;99.90;;;;;;5067415;28;20227;-85
2021/12/16 13:44:51;;;;;;;10.10;3.40;;;13.00;99.90;;;;;;5081153;28;20314;-83
2021/12/16 13:47:32;;;;;;;13.77;4.13;;;13.00;99.90;;;;;;5067317;28;20220;-83
2021/12/16 14:05:24;;;;;;;11.63;3.53;;;12.70;99.90;;;;;;5066745;28;20211;-84
2021/12/16 14:07:56;;;;;;;13.17;4.17;;;12.60;99.90;;;;;;5067670;28;20230;-84
2021/12/16 14:10:46;;;;;;;15.90;3.70;;;12.50;99.90;;;;;;5066324;28;20238;-84
2021/12/16 14:16:27;;;;;;;13.43;3.67;;;12.40;99.90;;;;;;5068500;28;20240;-85
2021/12/16 14:36:18;;;;;;;11.53;3.67;;;12.00;99.90;;;;;;5046994;28;20250;-83
2021/12/16 14:39:28;;;;;;;11.63;4.30;;;12.00;99.90;;;;;;5069449;28;20223;-83
2021/12/16 14:42:09;;;;;;;16.40;4.03;;;12.00;99.90;;;;;;5064192;28;20668;-83
2021/12/16 14:47:54;;;;;;;10.20;2.97;;;11.90;99.90;;;;;;5070907;28;20212;-84
2021/12/16 14:50:24;;;;;;;13.60;3.77;;;11.90;99.90;;;;;;5062106;28;20230;-84
2021/12/16 14:52:51;;;;;;;10.70;3.20;;;11.90;99.90;;;;;;5066956;28;20709;-83
2021/12/16 14:55:19;;;;;;;13.23;3.33;;;11.90;99.90;;;;;;5072340;28;20240;-84
2021/12/16 14:57:48;;;;;;;14.47;3.53;;;11.90;99.90;;;;;;5069706;28;20222;-83
2021/12/16 15:00:20;;;;;;;9.23;4.13;;;11.90;99.90;;;;;;5068505;28;20246;-84
2021/12/16 15:02:58;;;;;;;12.73;3.87;;;11.80;99.90;;;;;;5066971;28;20278;-84
2021/12/16 15:05:32;;;;;;;12.60;3.80;;;11.80;99.90;;;;;;5067271;28;20747;-85
2021/12/16 15:08:10;;;;;;;14.43;4.00;;;11.70;99.90;;;;;;5065909;28;20316;-83
2021/12/16 15:10:38;;;;;;;10.33;3.70;;;11.70;99.90;;;;;;5069848;28;20230;-83
2021/12/16 15:13:11;;;;;;;13.93;4.60;;;11.60;99.90;;;;;;5065060;28;20229;-83
2021/12/16 15:15:47;;;;;;;11.70;4.30;;;11.60;99.90;;;;;;5060211;28;20226;-82
2021/12/16 15:40:55;;;;;;;14.40;4.87;;;11.30;99.90;;;;;;5065102;28;20227;-84
2021/12/16 15:43:22;;;;;;;12.73;4.33;;;11.30;99.90;;;;;;5063926;28;20227;-84
2021/12/16 15:45:51;;;;;;;16.87;4.63;;;11.30;99.90;;;;;;5066082;28;20531;-84